sensor_id;sensor_type;location;lat;lon;timestamp;pressure;altitude;pressure_sealevel;temperature;humidity
49072;BME280;52656;52.610;10.236;2023-05-14T00:00:12;101558.28;;;11.71;57.48
49072;BME280;52656;52.610;10.236;2023-05-14T00:02:38;101554.91;;;11.66;59.68
49072;BME280;52656;52.610;10.236;2023-05-14T00:05:03;101558.56;;;11.63;56.25
49072;BME280;52656;52.610;10.236;2023-05-14T00:07:28;101555.06;;;11.61;56.47
49072;BME280;52656;52.610;10.236;2023-05-14T00:09:55;101554.16;;;11.62;56.14
49072;BME280;52656;52.610;10.236;2023-05-14T00:12:20;101544.75;;;11.52;62.03
49072;BME280;52656;52.610;10.236;2023-05-14T00:14:45;101544.03;;;11.47;60.35
49072;BME280;52656;52.610;10.236;2023-05-14T00:17:11;101546.00;;;11.40;63.01
49072;BME280;52656;52.610;10.236;2023-05-14T00:19:36;101539.84;;;11.40;55.41
49072;BME280;52656;52.610;10.236;2023-05-14T00:22:01;101543.44;;;11.37;55.00
49072;BME280;52656;52.610;10.236;2023-05-14T00:24:26;101551.44;;;11.36;56.15
49072;BME280;52656;52.610;10.236;2023-05-14T00:26:52;101540.97;;;11.31;57.66
49072;BME280;52656;52.610;10.236;2023-05-14T00:29:17;101536.69;;;11.26;62.97
49072;BME280;52656;52.610;10.236;2023-05-14T00:31:42;101543.09;;;11.18;64.12
49072;BME280;52656;52.610;10.236;2023-05-14T00:34:07;101534.44;;;11.12;61.89
49072;BME280;52656;52.610;10.236;2023-05-14T00:36:32;101529.09;;;11.13;62.34
49072;BME280;52656;52.610;10.236;2023-05-14T00:38:57;101528.25;;;11.11;57.40
49072;BME280;52656;52.610;10.236;2023-05-14T00:41:23;101530.97;;;11.10;56.83
49072;BME280;52656;52.610;10.236;2023-05-14T00:43:48;101520.56;;;11.04;63.26
49072;BME280;52656;52.610;10.236;2023-05-14T00:46:13;101532.09;;;11.01;61.05
49072;BME280;52656;52.610;10.236;2023-05-14T00:48:39;101530.38;;;10.99;59.82
49072;BME280;52656;52.610;10.236;2023-05-14T00:51:04;101519.91;;;10.94;63.41
49072;BME280;52656;52.610;10.236;2023-05-14T00:53:30;101530.72;;;10.88;63.00
49072;BME280;52656;52.610;10.236;2023-05-14T00:55:56;101529.09;;;10.82;63.17
49072;BME280;52656;52.610;10.236;2023-05-14T00:58:21;101526.47;;;10.82;58.40
49072;BME280;52656;52.610;10.236;2023-05-14T01:00:46;101523.03;;;10.79;63.21
49072;BME280;52656;52.610;10.236;2023-05-14T01:03:12;101527.63;;;10.72;65.19
49072;BME280;52656;52.610;10.236;2023-05-14T01:05:43;101525.00;;;10.72;64.58
49072;BME280;52656;52.610;10.236;2023-05-14T01:08:19;101528.56;;;10.69;60.44
49072;BME280;52656;52.610;10.236;2023-05-14T01:10:54;101525.13;;;10.67;65.86
49072;BME280;52656;52.610;10.236;2023-05-14T01:13:36;101527.78;;;10.66;58.90
49072;BME280;52656;52.610;10.236;2023-05-14T01:16:04;101531.44;;;10.62;62.38
49072;BME280;52656;52.610;10.236;2023-05-14T01:18:32;101531.59;;;10.56;63.52
49072;BME280;52656;52.610;10.236;2023-05-14T01:20:57;101531.69;;;10.53;64.80
49072;BME280;52656;52.610;10.236;2023-05-14T01:23:22;101528.34;;;10.46;66.82
49072;BME280;52656;52.610;10.236;2023-05-14T01:25:47;101528.41;;;10.43;66.82
49072;BME280;52656;52.610;10.236;2023-05-14T01:30:48;101527.59;;;10.41;62.52
49072;BME280;52656;52.610;10.236;2023-05-14T01:33:15;101529.41;;;10.39;64.48
49072;BME280;52656;52.610;10.236;2023-05-14T01:35:40;101528.63;;;10.35;63.50
49072;BME280;52656;52.610;10.236;2023-05-14T01:38:08;101525.19;;;10.32;65.03
49072;BME280;52656;52.610;10.236;2023-05-14T01:40:34;101527.03;;;10.28;63.27
49072;BME280;52656;52.610;10.236;2023-05-14T01:43:00;101521.88;;;10.24;59.03
49072;BME280;52656;52.610;10.236;2023-05-14T01:45:26;101522.81;;;10.21;62.89
49072;BME280;52656;52.610;10.236;2023-05-14T01:47:51;101530.97;;;10.12;66.41
49072;BME280;52656;52.610;10.236;2023-05-14T01:50:16;101527.56;;;10.08;65.03
49072;BME280;52656;52.610;10.236;2023-05-14T01:52:42;101526.78;;;10.03;67.47
49072;BME280;52656;52.610;10.236;2023-05-14T01:55:07;101526.03;;;9.98;68.36
49072;BME280;52656;52.610;10.236;2023-05-14T01:57:33;101520.91;;;9.92;67.16
49072;BME280;52656;52.610;10.236;2023-05-14T01:59:58;101522.00;;;9.83;69.83
49072;BME280;52656;52.610;10.236;2023-05-14T02:02:23;101523.78;;;9.83;61.98
49072;BME280;52656;52.610;10.236;2023-05-14T02:04:48;101524.66;;;9.82;66.51
49072;BME280;52656;52.610;10.236;2023-05-14T02:07:14;101522.13;;;9.76;69.51
49072;BME280;52656;52.610;10.236;2023-05-14T02:09:39;101527.47;;;9.74;67.15
49072;BME280;52656;52.610;10.236;2023-05-14T02:12:05;101518.72;;;9.71;70.37
49072;BME280;52656;52.610;10.236;2023-05-14T02:14:30;101512.63;;;9.67;70.91
49072;BME280;52656;52.610;10.236;2023-05-14T02:16:55;101524.25;;;9.61;70.52
49072;BME280;52656;52.610;10.236;2023-05-14T02:19:21;101522.69;;;9.53;70.90
49072;BME280;52656;52.610;10.236;2023-05-14T02:21:46;101520.13;;;9.50;69.31
49072;BME280;52656;52.610;10.236;2023-05-14T02:24:12;101513.88;;;9.54;65.04
49072;BME280;52656;52.610;10.236;2023-05-14T02:26:37;101518.41;;;9.47;70.36
49072;BME280;52656;52.610;10.236;2023-05-14T02:29:02;101520.22;;;9.45;70.55
49072;BME280;52656;52.610;10.236;2023-05-14T02:31:27;101514.03;;;9.46;66.38
49072;BME280;52656;52.610;10.236;2023-05-14T02:33:52;101523.75;;;9.44;70.02
49072;BME280;52656;52.610;10.236;2023-05-14T02:36:18;101521.16;;;9.42;65.40
49072;BME280;52656;52.610;10.236;2023-05-14T02:38:43;101514.19;;;9.38;66.06
49072;BME280;52656;52.610;10.236;2023-05-14T02:41:08;101518.72;;;9.33;71.52
49072;BME280;52656;52.610;10.236;2023-05-14T02:43:33;101509.06;;;9.31;68.20
49072;BME280;52656;52.610;10.236;2023-05-14T02:45:59;101512.63;;;9.30;70.32
49072;BME280;52656;52.610;10.236;2023-05-14T02:48:24;101512.72;;;9.25;70.72
49072;BME280;52656;52.610;10.236;2023-05-14T02:50:50;101510.06;;;9.25;70.88
49072;BME280;52656;52.610;10.236;2023-05-14T02:53:16;101522.47;;;9.23;66.66
49072;BME280;52656;52.610;10.236;2023-05-14T02:55:41;101511.91;;;9.23;63.25
49072;BME280;52656;52.610;10.236;2023-05-14T02:58:06;101514.59;;;9.20;71.82
49072;BME280;52656;52.610;10.236;2023-05-14T03:00:31;101518.25;;;9.14;71.13
49072;BME280;52656;52.610;10.236;2023-05-14T03:02:57;101513.03;;;9.11;71.16
49072;BME280;52656;52.610;10.236;2023-05-14T03:05:22;101515.75;;;9.08;69.99
49072;BME280;52656;52.610;10.236;2023-05-14T03:07:48;101520.13;;;9.08;68.34
49072;BME280;52656;52.610;10.236;2023-05-14T03:10:13;101515.81;;;9.05;70.96
49072;BME280;52656;52.610;10.236;2023-05-14T03:12:38;101505.22;;;9.05;66.64
49072;BME280;52656;52.610;10.236;2023-05-14T03:15:04;101514.03;;;9.06;63.97
49072;BME280;52656;52.610;10.236;2023-05-14T03:17:29;101512.28;;;9.05;68.98
49072;BME280;52656;52.610;10.236;2023-05-14T03:19:54;101507.78;;;9.10;63.37
49072;BME280;52656;52.610;10.236;2023-05-14T03:22:19;101500.69;;;9.12;65.00
49072;BME280;52656;52.610;10.236;2023-05-14T03:24:45;101503.34;;;9.10;66.28
49072;BME280;52656;52.610;10.236;2023-05-14T03:27:10;101513.09;;;9.08;69.73
49072;BME280;52656;52.610;10.236;2023-05-14T03:29:35;101511.28;;;9.10;70.62
49072;BME280;52656;52.610;10.236;2023-05-14T03:32:00;101513.88;;;9.12;68.36
49072;BME280;52656;52.610;10.236;2023-05-14T03:34:26;101511.16;;;9.16;65.16
49072;BME280;52656;52.610;10.236;2023-05-14T03:36:51;101510.19;;;9.21;66.31
49072;BME280;52656;52.610;10.236;2023-05-14T03:39:16;101511.84;;;9.25;67.97
49072;BME280;52656;52.610;10.236;2023-05-14T03:41:45;101501.13;;;9.31;68.44
49072;BME280;52656;52.610;10.236;2023-05-14T03:44:11;101506.41;;;9.32;69.22
49072;BME280;52656;52.610;10.236;2023-05-14T03:46:36;101501.03;;;9.37;69.97
49072;BME280;52656;52.610;10.236;2023-05-14T03:49:01;101497.28;;;9.46;69.54
49072;BME280;52656;52.610;10.236;2023-05-14T03:51:26;101502.50;;;9.49;69.97
49072;BME280;52656;52.610;10.236;2023-05-14T03:53:51;101501.41;;;9.59;68.69
49072;BME280;52656;52.610;10.236;2023-05-14T03:56:17;101501.31;;;9.62;69.86
49072;BME280;52656;52.610;10.236;2023-05-14T03:58:42;101496.66;;;9.72;69.51
49072;BME280;52656;52.610;10.236;2023-05-14T04:01:07;101496.53;;;9.78;71.61
49072;BME280;52656;52.610;10.236;2023-05-14T04:03:32;101496.28;;;9.90;67.96
49072;BME280;52656;52.610;10.236;2023-05-14T04:05:57;101490.53;;;10.07;68.70
49072;BME280;52656;52.610;10.236;2023-05-14T04:08:23;101489.78;;;10.34;67.92
49072;BME280;52656;52.610;10.236;2023-05-14T04:10:48;101495.56;;;10.50;68.59
49072;BME280;52656;52.610;10.236;2023-05-14T04:13:13;101493.38;;;10.95;66.02
49072;BME280;52656;52.610;10.236;2023-05-14T04:15:39;101483.09;;;11.44;64.68
49072;BME280;52656;52.610;10.236;2023-05-14T04:18:04;101479.69;;;12.45;61.40
49072;BME280;52656;52.610;10.236;2023-05-14T04:20:29;101476.72;;;13.70;56.95
49072;BME280;52656;52.610;10.236;2023-05-14T04:22:55;101475.06;;;14.69;53.83
49072;BME280;52656;52.610;10.236;2023-05-14T04:25:20;101473.41;;;15.61;51.79
49072;BME280;52656;52.610;10.236;2023-05-14T04:27:45;101475.41;;;16.62;49.60
49072;BME280;52656;52.610;10.236;2023-05-14T04:30:11;101461.19;;;17.42;46.74
49072;BME280;52656;52.610;10.236;2023-05-14T04:32:36;101457.59;;;17.89;45.11
49072;BME280;52656;52.610;10.236;2023-05-14T04:35:02;101456.22;;;18.70;44.29
49072;BME280;52656;52.610;10.236;2023-05-14T04:37:28;101456.16;;;18.86;42.64
49072;BME280;52656;52.610;10.236;2023-05-14T04:39:53;101457.50;;;19.62;41.92
49072;BME280;52656;52.610;10.236;2023-05-14T04:42:18;101460.69;;;20.08;40.78
49072;BME280;52656;52.610;10.236;2023-05-14T04:44:43;101462.34;;;21.00;40.54
49072;BME280;52656;52.610;10.236;2023-05-14T04:47:09;101453.50;;;20.72;38.56
49072;BME280;52656;52.610;10.236;2023-05-14T04:49:34;101457.63;;;20.40;38.28
49072;BME280;52656;52.610;10.236;2023-05-14T04:51:59;101460.09;;;20.68;39.29
49072;BME280;52656;52.610;10.236;2023-05-14T04:54:25;101458.16;;;21.57;37.24
49072;BME280;52656;52.610;10.236;2023-05-14T04:56:50;101461.06;;;20.67;38.31
49072;BME280;52656;52.610;10.236;2023-05-14T04:59:15;101463.03;;;21.15;36.72
49072;BME280;52656;52.610;10.236;2023-05-14T05:01:40;101459.63;;;20.74;37.78
49072;BME280;52656;52.610;10.236;2023-05-14T05:04:06;101454.81;;;22.01;36.25
49072;BME280;52656;52.610;10.236;2023-05-14T05:06:31;101442.56;;;22.77;35.12
49072;BME280;52656;52.610;10.236;2023-05-14T05:08:56;101445.25;;;23.76;33.48
49072;BME280;52656;52.610;10.236;2023-05-14T05:11:21;101443.50;;;24.08;33.62
49072;BME280;52656;52.610;10.236;2023-05-14T05:13:46;101447.03;;;23.87;32.53
49072;BME280;52656;52.610;10.236;2023-05-14T05:16:12;101438.94;;;24.08;32.70
49072;BME280;52656;52.610;10.236;2023-05-14T05:18:37;101445.69;;;24.65;31.46
49072;BME280;52656;52.610;10.236;2023-05-14T05:21:03;101445.78;;;24.85;31.09
49072;BME280;52656;52.610;10.236;2023-05-14T05:23:28;101437.28;;;25.78;31.58
49072;BME280;52656;52.610;10.236;2023-05-14T05:25:53;101443.00;;;26.04;31.01
49072;BME280;52656;52.610;10.236;2023-05-14T05:28:18;101439.66;;;25.52;31.02
49072;BME280;52656;52.610;10.236;2023-05-14T05:30:44;101439.16;;;26.63;29.24
49072;BME280;52656;52.610;10.236;2023-05-14T05:33:09;101443.50;;;26.46;28.96
49072;BME280;52656;52.610;10.236;2023-05-14T05:35:35;101439.28;;;27.26;28.84
49072;BME280;52656;52.610;10.236;2023-05-14T05:38:00;101440.44;;;27.69;27.85
49072;BME280;52656;52.610;10.236;2023-05-14T05:40:25;101438.50;;;28.23;28.29
49072;BME280;52656;52.610;10.236;2023-05-14T05:42:51;101435.78;;;27.16;28.71
49072;BME280;52656;52.610;10.236;2023-05-14T05:45:16;101433.28;;;27.86;27.87
49072;BME280;52656;52.610;10.236;2023-05-14T05:47:41;101438.50;;;28.23;27.00
49072;BME280;52656;52.610;10.236;2023-05-14T05:50:06;101431.44;;;28.13;27.08
49072;BME280;52656;52.610;10.236;2023-05-14T05:52:32;101435.34;;;26.83;28.44
49072;BME280;52656;52.610;10.236;2023-05-14T05:54:57;101430.50;;;28.22;27.51
49072;BME280;52656;52.610;10.236;2023-05-14T05:57:23;101435.97;;;26.21;29.06
49072;BME280;52656;52.610;10.236;2023-05-14T05:59:51;101442.84;;;26.35;29.60
49072;BME280;52656;52.610;10.236;2023-05-14T06:02:16;101431.88;;;27.19;29.13
49072;BME280;52656;52.610;10.236;2023-05-14T06:04:41;101428.31;;;25.08;31.68
49072;BME280;52656;52.610;10.236;2023-05-14T06:07:06;101440.44;;;23.80;33.80
49072;BME280;52656;52.610;10.236;2023-05-14T06:09:31;101448.47;;;21.78;36.04
49072;BME280;52656;52.610;10.236;2023-05-14T06:11:57;101442.19;;;22.70;35.86
49072;BME280;52656;52.610;10.236;2023-05-14T06:14:22;101440.59;;;22.57;35.39
49072;BME280;52656;52.610;10.236;2023-05-14T06:16:47;101435.63;;;23.29;33.92
49072;BME280;52656;52.610;10.236;2023-05-14T06:19:12;101444.84;;;21.66;35.65
49072;BME280;52656;52.610;10.236;2023-05-14T06:21:37;101448.13;;;20.21;38.80
49072;BME280;52656;52.610;10.236;2023-05-14T06:24:03;101450.22;;;18.67;41.44
49072;BME280;52656;52.610;10.236;2023-05-14T06:26:28;101445.75;;;23.16;34.89
49072;BME280;52656;52.610;10.236;2023-05-14T06:28:53;101432.16;;;25.75;30.55
49072;BME280;52656;52.610;10.236;2023-05-14T06:31:19;101435.72;;;25.85;29.73
49072;BME280;52656;52.610;10.236;2023-05-14T06:33:44;101431.06;;;27.54;28.03
49072;BME280;52656;52.610;10.236;2023-05-14T06:36:09;101420.56;;;28.99;26.46
49072;BME280;52656;52.610;10.236;2023-05-14T06:38:35;101432.72;;;25.78;30.21
49072;BME280;52656;52.610;10.236;2023-05-14T06:41:00;101450.28;;;22.59;33.80
49072;BME280;52656;52.610;10.236;2023-05-14T06:43:25;101449.38;;;21.42;35.99
49072;BME280;52656;52.610;10.236;2023-05-14T06:45:50;101444.06;;;21.16;37.30
49072;BME280;52656;52.610;10.236;2023-05-14T06:48:16;101443.59;;;20.60;37.93
49072;BME280;52656;52.610;10.236;2023-05-14T06:50:45;101439.22;;;21.21;37.11
49072;BME280;52656;52.610;10.236;2023-05-14T06:53:11;101458.06;;;19.94;39.00
49072;BME280;52656;52.610;10.236;2023-05-14T06:55:36;101454.09;;;19.18;40.37
49072;BME280;52656;52.610;10.236;2023-05-14T06:58:01;101444.47;;;20.48;38.47
49072;BME280;52656;52.610;10.236;2023-05-14T07:00:26;101451.25;;;19.48;40.39
49072;BME280;52656;52.610;10.236;2023-05-14T07:02:52;101449.88;;;19.56;40.19
49072;BME280;52656;52.610;10.236;2023-05-14T07:05:17;101451.78;;;19.81;39.78
49072;BME280;52656;52.610;10.236;2023-05-14T07:07:42;101438.97;;;20.24;39.12
49072;BME280;52656;52.610;10.236;2023-05-14T07:10:07;101440.56;;;19.74;39.70
49072;BME280;52656;52.610;10.236;2023-05-14T07:12:32;101439.09;;;20.48;39.22
49072;BME280;52656;52.610;10.236;2023-05-14T07:14:58;101432.25;;;20.04;39.75
49072;BME280;52656;52.610;10.236;2023-05-14T07:17:23;101433.03;;;20.57;38.18
49072;BME280;52656;52.610;10.236;2023-05-14T07:19:48;101424.88;;;22.84;35.14
49072;BME280;52656;52.610;10.236;2023-05-14T07:22:13;101422.53;;;23.89;33.00
49072;BME280;52656;52.610;10.236;2023-05-14T07:24:38;101420.63;;;24.00;31.86
49072;BME280;52656;52.610;10.236;2023-05-14T07:27:04;101422.97;;;23.41;33.30
49072;BME280;52656;52.610;10.236;2023-05-14T07:29:30;101419.63;;;22.71;33.45
49072;BME280;52656;52.610;10.236;2023-05-14T07:31:55;101419.22;;;21.85;35.46
49072;BME280;52656;52.610;10.236;2023-05-14T07:34:20;101417.78;;;21.44;36.65
49072;BME280;52656;52.610;10.236;2023-05-14T07:36:45;101417.88;;;21.42;36.81
49072;BME280;52656;52.610;10.236;2023-05-14T07:39:11;101411.38;;;22.73;35.02
49072;BME280;52656;52.610;10.236;2023-05-14T07:41:36;101394.72;;;25.40;30.12
49072;BME280;52656;52.610;10.236;2023-05-14T07:44:01;101398.22;;;26.37;28.67
49072;BME280;52656;52.610;10.236;2023-05-14T07:46:26;101393.16;;;26.79;29.11
49072;BME280;52656;52.610;10.236;2023-05-14T07:48:51;101395.84;;;29.08;25.62
49072;BME280;52656;52.610;10.236;2023-05-14T07:51:17;101394.78;;;30.09;24.20
49072;BME280;52656;52.610;10.236;2023-05-14T07:53:42;101394.13;;;31.79;22.46
49072;BME280;52656;52.610;10.236;2023-05-14T07:56:07;101382.69;;;33.02;21.64
49072;BME280;52656;52.610;10.236;2023-05-14T07:58:32;101387.16;;;31.30;23.30
49072;BME280;52656;52.610;10.236;2023-05-14T08:00:59;101385.19;;;31.16;23.42
49072;BME280;52656;52.610;10.236;2023-05-14T08:03:25;101387.94;;;30.77;23.91
49072;BME280;52656;52.610;10.236;2023-05-14T08:05:50;101379.53;;;31.41;22.84
49072;BME280;52656;52.610;10.236;2023-05-14T08:08:16;101374.03;;;32.39;22.28
49072;BME280;52656;52.610;10.236;2023-05-14T08:10:41;101374.34;;;33.31;20.77
49072;BME280;52656;52.610;10.236;2023-05-14T08:13:06;101365.03;;;35.07;19.18
49072;BME280;52656;52.610;10.236;2023-05-14T08:15:32;101368.88;;;34.30;19.84
49072;BME280;52656;52.610;10.236;2023-05-14T08:17:57;101368.97;;;35.99;18.41
49072;BME280;52656;52.610;10.236;2023-05-14T08:20:27;101377.81;;;31.48;21.21
49072;BME280;52656;52.610;10.236;2023-05-14T08:22:52;101359.59;;;35.47;18.59
49072;BME280;52656;52.610;10.236;2023-05-14T08:25:17;101352.59;;;38.02;17.44
49072;BME280;52656;52.610;10.236;2023-05-14T08:27:42;101359.63;;;38.78;16.57
49072;BME280;52656;52.610;10.236;2023-05-14T08:30:08;101363.00;;;35.56;17.99
49072;BME280;52656;52.610;10.236;2023-05-14T08:32:33;101356.03;;;36.78;17.21
49072;BME280;52656;52.610;10.236;2023-05-14T08:35:00;101362.81;;;35.57;17.68
49072;BME280;52656;52.610;10.236;2023-05-14T08:37:25;101361.28;;;33.33;19.29
49072;BME280;52656;52.610;10.236;2023-05-14T08:39:50;101360.06;;;34.07;18.91
49072;BME280;52656;52.610;10.236;2023-05-14T08:42:15;101355.59;;;33.35;19.94
49072;BME280;52656;52.610;10.236;2023-05-14T08:44:46;101357.00;;;32.44;20.67
49072;BME280;52656;52.610;10.236;2023-05-14T08:47:12;101357.84;;;32.00;21.22
49072;BME280;52656;52.610;10.236;2023-05-14T08:49:40;101351.84;;;33.00;20.97
49072;BME280;52656;52.610;10.236;2023-05-14T08:52:06;101348.81;;;32.95;20.40
49072;BME280;52656;52.610;10.236;2023-05-14T08:54:32;101337.84;;;34.85;19.21
49072;BME280;52656;52.610;10.236;2023-05-14T08:56:57;101331.34;;;36.31;17.69
49072;BME280;52656;52.610;10.236;2023-05-14T08:59:23;101329.47;;;36.05;16.69
49072;BME280;52656;52.610;10.236;2023-05-14T09:01:51;101336.41;;;34.95;17.65
49072;BME280;52656;52.610;10.236;2023-05-14T09:04:20;101341.00;;;33.13;19.09
49072;BME280;52656;52.610;10.236;2023-05-14T09:06:47;101322.13;;;34.78;18.77
49072;BME280;52656;52.610;10.236;2023-05-14T09:09:13;101331.13;;;36.20;17.14
49072;BME280;52656;52.610;10.236;2023-05-14T09:11:44;101332.91;;;35.94;16.75
49072;BME280;52656;52.610;10.236;2023-05-14T09:14:09;101324.97;;;32.95;18.90
49072;BME280;52656;52.610;10.236;2023-05-14T09:16:34;101324.84;;;35.60;17.99
49072;BME280;52656;52.610;10.236;2023-05-14T09:19:01;101326.31;;;35.95;16.81
49072;BME280;52656;52.610;10.236;2023-05-14T09:21:27;101316.84;;;34.70;18.24
49072;BME280;52656;52.610;10.236;2023-05-14T09:23:52;101312.13;;;34.57;18.21
49072;BME280;52656;52.610;10.236;2023-05-14T09:26:20;101310.78;;;34.47;18.08
49072;BME280;52656;52.610;10.236;2023-05-14T09:28:47;101315.13;;;34.28;17.96
49072;BME280;52656;52.610;10.236;2023-05-14T09:31:12;101305.69;;;32.52;19.58
49072;BME280;52656;52.610;10.236;2023-05-14T09:33:37;101310.66;;;33.92;18.29
49072;BME280;52656;52.610;10.236;2023-05-14T09:36:03;101300.00;;;32.39;20.08
49072;BME280;52656;52.610;10.236;2023-05-14T09:38:31;101299.72;;;32.85;19.68
49072;BME280;52656;52.610;10.236;2023-05-14T09:40:57;101295.41;;;33.12;19.45
49072;BME280;52656;52.610;10.236;2023-05-14T09:43:22;101291.53;;;29.55;22.22
49072;BME280;52656;52.610;10.236;2023-05-14T09:45:47;101296.63;;;29.91;22.21
49072;BME280;52656;52.610;10.236;2023-05-14T09:48:13;101297.34;;;29.85;22.44
49072;BME280;52656;52.610;10.236;2023-05-14T09:50:41;101298.81;;;30.91;21.52
49072;BME280;52656;52.610;10.236;2023-05-14T09:53:06;101282.13;;;29.99;21.87
49072;BME280;52656;52.610;10.236;2023-05-14T09:55:32;101273.06;;;27.73;24.32
49072;BME280;52656;52.610;10.236;2023-05-14T09:57:57;101281.56;;;26.63;25.17
49072;BME280;52656;52.610;10.236;2023-05-14T10:00:22;101278.75;;;24.84;27.71
49072;BME280;52656;52.610;10.236;2023-05-14T10:02:47;101276.19;;;24.72;27.38
49072;BME280;52656;52.610;10.236;2023-05-14T10:05:14;101275.81;;;26.66;26.05
49072;BME280;52656;52.610;10.236;2023-05-14T10:07:43;101280.78;;;26.71;25.59
49072;BME280;52656;52.610;10.236;2023-05-14T10:10:12;101269.56;;;26.28;26.17
49072;BME280;52656;52.610;10.236;2023-05-14T10:12:39;101267.22;;;28.20;23.96
49072;BME280;52656;52.610;10.236;2023-05-14T10:15:18;101273.41;;;26.81;25.51
49072;BME280;52656;52.610;10.236;2023-05-14T10:17:46;101262.03;;;25.85;26.58
49072;BME280;52656;52.610;10.236;2023-05-14T10:20:13;101252.25;;;28.83;23.26
49072;BME280;52656;52.610;10.236;2023-05-14T10:22:40;101241.22;;;29.33;22.70
49072;BME280;52656;52.610;10.236;2023-05-14T10:25:05;101249.66;;;30.04;22.71
49072;BME280;52656;52.610;10.236;2023-05-14T10:27:32;101240.06;;;30.08;21.94
49072;BME280;52656;52.610;10.236;2023-05-14T10:29:57;101239.50;;;29.00;22.96
49072;BME280;52656;52.610;10.236;2023-05-14T10:32:23;101245.19;;;27.79;22.31
49072;BME280;52656;52.610;10.236;2023-05-14T10:34:49;101236.84;;;28.07;22.22
49072;BME280;52656;52.610;10.236;2023-05-14T10:37:19;101235.78;;;28.00;21.95
49072;BME280;52656;52.610;10.236;2023-05-14T10:42:25;101232.75;;;28.11;22.04
49072;BME280;52656;52.610;10.236;2023-05-14T10:44:55;101231.31;;;27.91;23.13
49072;BME280;52656;52.610;10.236;2023-05-14T10:47:22;101224.53;;;28.37;21.73
49072;BME280;52656;52.610;10.236;2023-05-14T10:49:48;101228.50;;;28.51;21.68
49072;BME280;52656;52.610;10.236;2023-05-14T10:52:15;101228.97;;;27.44;23.40
49072;BME280;52656;52.610;10.236;2023-05-14T10:54:40;101231.13;;;26.51;23.72
49072;BME280;52656;52.610;10.236;2023-05-14T10:57:10;101229.78;;;25.72;25.05
49072;BME280;52656;52.610;10.236;2023-05-14T10:59:35;101231.84;;;24.64;26.26
49072;BME280;52656;52.610;10.236;2023-05-14T11:02:03;101236.72;;;23.89;27.11
49072;BME280;52656;52.610;10.236;2023-05-14T11:04:30;101231.16;;;24.31;27.07
49072;BME280;52656;52.610;10.236;2023-05-14T11:06:55;101229.75;;;23.96;27.57
49072;BME280;52656;52.610;10.236;2023-05-14T11:09:21;101229.81;;;23.54;26.98
49072;BME280;52656;52.610;10.236;2023-05-14T11:11:47;101229.94;;;23.32;27.51
49072;BME280;52656;52.610;10.236;2023-05-14T11:14:13;101224.09;;;23.27;26.02
49072;BME280;52656;52.610;10.236;2023-05-14T11:16:38;101225.56;;;23.62;26.42
49072;BME280;52656;52.610;10.236;2023-05-14T11:19:05;101218.34;;;23.62;26.48
49072;BME280;52656;52.610;10.236;2023-05-14T11:21:30;101222.19;;;23.90;26.21
49072;BME280;52656;52.610;10.236;2023-05-14T11:23:59;101211.59;;;24.08;25.40
49072;BME280;52656;52.610;10.236;2023-05-14T11:26:24;101209.47;;;24.62;24.77
49072;BME280;52656;52.610;10.236;2023-05-14T11:28:50;101200.19;;;24.64;24.39
49072;BME280;52656;52.610;10.236;2023-05-14T11:31:15;101192.63;;;24.58;24.55
49072;BME280;52656;52.610;10.236;2023-05-14T11:33:40;101198.19;;;24.95;24.59
49072;BME280;52656;52.610;10.236;2023-05-14T11:36:06;101188.63;;;24.91;25.05
49072;BME280;52656;52.610;10.236;2023-05-14T11:38:31;101197.03;;;25.08;25.35
49072;BME280;52656;52.610;10.236;2023-05-14T11:40:57;101178.03;;;24.40;25.50
49072;BME280;52656;52.610;10.236;2023-05-14T11:43:23;101181.63;;;24.69;25.45
49072;BME280;52656;52.610;10.236;2023-05-14T11:45:52;101171.69;;;24.89;24.85
49072;BME280;52656;52.610;10.236;2023-05-14T11:48:18;101163.97;;;24.65;25.35
49072;BME280;52656;52.610;10.236;2023-05-14T11:50:44;101171.09;;;24.86;25.53
49072;BME280;52656;52.610;10.236;2023-05-14T11:53:09;101174.66;;;24.76;25.71
49072;BME280;52656;52.610;10.236;2023-05-14T11:55:34;101161.31;;;24.25;26.17
49072;BME280;52656;52.610;10.236;2023-05-14T11:58:00;101157.25;;;24.60;25.58
49072;BME280;52656;52.610;10.236;2023-05-14T12:00:25;101163.66;;;24.97;25.92
49072;BME280;52656;52.610;10.236;2023-05-14T12:02:51;101160.34;;;24.16;25.87
49072;BME280;52656;52.610;10.236;2023-05-14T12:05:17;101153.44;;;24.02;26.31
49072;BME280;52656;52.610;10.236;2023-05-14T12:07:45;101152.28;;;24.94;25.06
49072;BME280;52656;52.610;10.236;2023-05-14T12:10:11;101160.09;;;23.58;27.12
49072;BME280;52656;52.610;10.236;2023-05-14T12:12:37;101170.16;;;23.25;27.05
49072;BME280;52656;52.610;10.236;2023-05-14T12:15:09;101192.75;;;22.39;29.93
49072;BME280;52656;52.610;10.236;2023-05-14T12:17:36;101199.25;;;22.37;31.20
49072;BME280;52656;52.610;10.236;2023-05-14T12:20:01;101204.56;;;21.13;37.05
49072;BME280;52656;52.610;10.236;2023-05-14T12:22:27;101179.19;;;17.25;100.00
49072;BME280;52656;52.610;10.236;2023-05-14T12:28:17;62698.94;;;-143.42;100.00
49072;BME280;52656;52.610;10.236;2023-05-14T12:31:45;62698.94;;;-143.42;100.00
49072;BME280;52656;52.610;10.236;2023-05-14T12:35:09;62698.94;;;-143.42;100.00
49072;BME280;52656;52.610;10.236;2023-05-14T12:38:33;62698.94;;;-143.42;100.00
49072;BME280;52656;52.610;10.236;2023-05-14T12:41:57;62698.94;;;-143.42;100.00
49072;BME280;52656;52.610;10.236;2023-05-14T12:44:22;101228.00;;;14.87;100.00